Time;durP1;ratioP1;P1;durP2;ratioP2;P2;SDS_P1;SDS_P2;PMS_P1;PMS_P2;Temp;Humidity;BMP_temperature;BMP_pressure;BME280_temperature;BME280_humidity;BME280_pressure;Samples;Min_cycle;Max_cycle;Signal;HPM_P1;HPM_P2
2024/04/20 00:00:35;;;;;;;0.03;0.03;;;;;;;;;;6705802;26;20000;-77
2024/04/20 00:03:35;;;;;;;0.27;0.07;;;;;;;;;;6731317;26;20039;-77
2024/04/20 00:06:36;;;;;;;0.10;0.10;;;;;;;;;;6727011;26;19999;-77
2024/04/20 00:09:36;;;;;;;0.00;0.00;;;;;;;;;;6696258;26;20019;-77
2024/04/20 00:12:36;;;;;;;0.10;0.10;;;;;;;;;;6727704;26;20001;-76
2024/04/20 00:15:38;;;;;;;0.00;0.00;;;;;;;;;;6728126;26;19992;-76
2024/04/20 00:18:38;;;;;;;0.00;0.00;;;;;;;;;;6697699;26;20453;-76
2024/04/20 00:21:39;;;;;;;0.10;0.10;;;;;;;;;;6690775;26;20109;-76
2024/04/20 00:24:39;;;;;;;0.20;0.03;;;;;;;;;;6684069;26;20321;-77
2024/04/20 00:27:39;;;;;;;0.10;0.10;;;;;;;;;;6684021;26;19996;-76
2024/04/20 00:30:39;;;;;;;0.00;0.00;;;;;;;;;;6683379;26;20020;-77
2024/04/20 00:33:39;;;;;;;0.10;0.10;;;;;;;;;;6721204;26;19992;-76
2024/04/20 00:36:40;;;;;;;0.00;0.00;;;;;;;;;;6705099;26;20028;-77
2024/04/20 00:39:40;;;;;;;0.10;0.10;;;;;;;;;;6725127;26;20479;-76
2024/04/20 00:42:40;;;;;;;0.10;0.10;;;;;;;;;;6683579;26;20314;-77
2024/04/20 00:45:41;;;;;;;0.10;0.10;;;;;;;;;;6682834;26;20001;-77
2024/04/20 00:48:41;;;;;;;0.10;0.10;;;;;;;;;;6688996;26;20453;-78
2024/04/20 00:51:42;;;;;;;0.13;0.00;;;;;;;;;;6724320;26;20003;-77
2024/04/20 00:54:43;;;;;;;0.10;0.10;;;;;;;;;;6726609;26;20032;-77
2024/04/20 00:57:43;;;;;;;0.10;0.10;;;;;;;;;;6703270;26;20464;-77
2024/04/20 01:00:44;;;;;;;0.40;0.00;;;;;;;;;;6725475;26;20015;-77
2024/04/20 01:03:44;;;;;;;0.00;0.00;;;;;;;;;;6697144;26;20266;-77
2024/04/20 01:06:44;;;;;;;0.00;0.00;;;;;;;;;;6681640;26;20489;-77
2024/04/20 01:09:44;;;;;;;0.00;0.00;;;;;;;;;;6682456;26;20453;-77
2024/04/20 01:12:44;;;;;;;0.00;0.00;;;;;;;;;;6652432;26;20492;-77
2024/04/20 01:15:45;;;;;;;0.10;0.10;;;;;;;;;;6698089;26;20067;-77
2024/04/20 01:18:45;;;;;;;0.10;0.10;;;;;;;;;;6727255;26;19987;-76
2024/04/20 01:21:46;;;;;;;0.10;0.10;;;;;;;;;;6661168;26;20011;-77
2024/04/20 01:24:47;;;;;;;0.10;0.10;;;;;;;;;;6683236;26;20008;-77
2024/04/20 01:27:47;;;;;;;0.10;0.10;;;;;;;;;;6726929;26;20053;-77
2024/04/20 01:30:47;;;;;;;0.20;0.10;;;;;;;;;;6707571;26;20438;-77
2024/04/20 01:33:48;;;;;;;0.20;0.20;;;;;;;;;;6675322;26;20014;-77
2024/04/20 01:36:48;;;;;;;0.10;0.10;;;;;;;;;;6725003;26;20336;-77
2024/04/20 01:39:48;;;;;;;0.10;0.10;;;;;;;;;;6725783;26;20383;-77
2024/04/20 01:42:48;;;;;;;0.07;0.07;;;;;;;;;;6700134;26;20384;-77
2024/04/20 01:45:49;;;;;;;0.27;0.10;;;;;;;;;;6704476;26;20465;-77
2024/04/20 01:48:49;;;;;;;0.10;0.10;;;;;;;;;;6691760;26;20332;-77
2024/04/20 01:51:49;;;;;;;0.10;0.10;;;;;;;;;;6667679;26;20463;-77
2024/04/20 01:54:49;;;;;;;1.20;0.10;;;;;;;;;;6724338;26;20433;-77
2024/04/20 01:57:51;;;;;;;;;;;;;;;;;;6726840;26;20010;-77
2024/04/20 02:00:51;;;;;;;0.08;0.08;;;;;;;;;;6712002;26;19926;-77
2024/04/20 02:03:51;;;;;;;0.10;0.10;;;;;;;;;;6683673;26;20457;-77
2024/04/20 02:06:51;;;;;;;0.20;0.17;;;;;;;;;;6680103;26;20004;-77
2024/04/20 02:09:52;;;;;;;0.10;0.10;;;;;;;;;;6689978;26;20006;-77
2024/04/20 02:12:52;;;;;;;0.20;0.17;;;;;;;;;;6722739;26;19992;-78
2024/04/20 02:15:54;;;;;;;0.10;0.10;;;;;;;;;;6694318;26;20020;-78
2024/04/20 02:18:55;;;;;;;0.10;0.10;;;;;;;;;;6651537;26;20002;-78
2024/04/20 02:21:55;;;;;;;0.10;0.10;;;;;;;;;;6713494;26;19995;-78
2024/04/20 02:24:55;;;;;;;0.40;0.20;;;;;;;;;;6722429;26;20436;-78
2024/04/20 02:27:56;;;;;;;0.10;0.10;;;;;;;;;;6717538;26;20335;-78
2024/04/20 02:30:56;;;;;;;0.10;0.10;;;;;;;;;;6690693;26;20003;-76
2024/04/20 02:33:57;;;;;;;0.10;0.10;;;;;;;;;;6712499;26;20005;-76
2024/04/20 02:37:05;;;;;;;0.20;0.20;;;;;;;;;;6681002;26;20024;-76
2024/04/20 02:40:06;;;;;;;0.15;0.13;;;;;;;;;;6677753;26;20013;-77
2024/04/20 02:43:06;;;;;;;0.10;0.10;;;;;;;;;;6681707;26;20008;-76
2024/04/20 02:46:06;;;;;;;0.10;0.10;;;;;;;;;;6656625;26;19996;-76
2024/04/20 02:49:07;;;;;;;0.10;0.10;;;;;;;;;;6696748;26;19987;-77
2024/04/20 02:52:07;;;;;;;0.10;0.10;;;;;;;;;;6707540;26;20006;-76
2024/04/20 02:55:07;;;;;;;0.17;0.17;;;;;;;;;;6683961;26;20020;-76
2024/04/20 02:58:09;;;;;;;0.10;0.10;;;;;;;;;;6684141;26;20463;-76
2024/04/20 03:01:09;;;;;;;0.17;0.17;;;;;;;;;;6717768;26;20003;-76
2024/04/20 03:04:09;;;;;;;0.17;0.17;;;;;;;;;;6707567;26;19988;-76
2024/04/20 03:07:11;;;;;;;0.10;0.10;;;;;;;;;;6703481;26;20057;-76
2024/04/20 03:10:11;;;;;;;0.20;0.20;;;;;;;;;;6689453;26;20008;-76
2024/04/20 03:13:12;;;;;;;0.17;0.17;;;;;;;;;;6681106;26;19989;-76
2024/04/20 03:16:13;;;;;;;0.13;0.10;;;;;;;;;;6723474;26;20003;-76
2024/04/20 03:19:13;;;;;;;0.20;0.20;;;;;;;;;;6666280;26;20444;-76
2024/04/20 03:22:13;;;;;;;0.20;0.20;;;;;;;;;;6678875;26;20314;-76
2024/04/20 03:25:15;;;;;;;0.40;0.20;;;;;;;;;;6707800;26;20576;-77
2024/04/20 03:28:15;;;;;;;0.30;0.20;;;;;;;;;;6730257;26;20480;-76
2024/04/20 03:31:16;;;;;;;0.13;0.13;;;;;;;;;;6724071;26;19988;-76
2024/04/20 03:34:16;;;;;;;0.10;0.10;;;;;;;;;;6723133;26;19999;-76
2024/04/20 03:37:19;;;;;;;0.33;0.20;;;;;;;;;;6693118;26;20472;-76
2024/04/20 03:40:20;;;;;;;0.20;0.20;;;;;;;;;;6679301;26;20008;-77
2024/04/20 03:43:20;;;;;;;0.20;0.20;;;;;;;;;;6719134;26;20455;-77
2024/04/20 03:46:20;;;;;;;0.20;0.20;;;;;;;;;;6693450;26;20381;-77
2024/04/20 03:49:20;;;;;;;0.27;0.20;;;;;;;;;;6687164;26;20440;-77
2024/04/20 03:52:21;;;;;;;0.10;0.10;;;;;;;;;;6687373;26;19996;-77
2024/04/20 03:55:21;;;;;;;0.10;0.10;;;;;;;;;;6683222;26;20000;-77
2024/04/20 03:58:21;;;;;;;0.20;0.20;;;;;;;;;;6683818;26;20444;-77
2024/04/20 04:01:21;;;;;;;0.10;0.10;;;;;;;;;;6689437;26;20010;-77
2024/04/20 04:04:22;;;;;;;0.20;0.20;;;;;;;;;;6723438;26;20000;-77
2024/04/20 04:07:22;;;;;;;0.10;0.10;;;;;;;;;;6691037;26;20089;-77
2024/04/20 04:10:22;;;;;;;0.10;0.10;;;;;;;;;;6723724;26;20511;-77
2024/04/20 04:13:22;;;;;;;0.13;0.13;;;;;;;;;;6724972;26;19999;-77
2024/04/20 04:16:23;;;;;;;0.10;0.10;;;;;;;;;;6702700;26;20000;-77
2024/04/20 04:19:23;;;;;;;0.10;0.10;;;;;;;;;;6710056;26;20007;-77
2024/04/20 04:22:23;;;;;;;0.10;0.07;;;;;;;;;;6729322;26;19996;-77
2024/04/20 04:25:23;;;;;;;0.10;0.10;;;;;;;;;;6772895;26;20427;-77
2024/04/20 04:28:24;;;;;;;0.10;0.10;;;;;;;;;;6772844;26;20463;-77
2024/04/20 04:31:25;;;;;;;0.53;0.10;;;;;;;;;;6708178;26;20095;-77
2024/04/20 04:34:25;;;;;;;;;;;;;;;;;;6686893;26;19996;-77
2024/04/20 04:37:28;;;;;;;0.00;0.00;;;;;;;;;;6690348;26;19925;-77
2024/04/20 04:40:29;;;;;;;0.00;0.00;;;;;;;;;;6652599;26;19988;-77
2024/04/20 04:43:29;;;;;;;0.37;0.10;;;;;;;;;;6683635;26;20011;-77
2024/04/20 04:46:29;;;;;;;0.10;0.10;;;;;;;;;;6723194;26;19991;-77
2024/04/20 04:49:29;;;;;;;0.10;0.10;;;;;;;;;;6727875;26;20024;-76
2024/04/20 04:52:30;;;;;;;0.10;0.10;;;;;;;;;;6699125;26;20099;-76
2024/04/20 04:55:30;;;;;;;0.20;0.13;;;;;;;;;;6697169;26;20000;-76
2024/04/20 04:58:30;;;;;;;0.10;0.10;;;;;;;;;;6683341;26;20000;-76
2024/04/20 05:01:30;;;;;;;0.20;0.20;;;;;;;;;;6710732;26;20007;-76
2024/04/20 05:04:31;;;;;;;0.10;0.10;;;;;;;;;;6682520;26;20019;-76
2024/04/20 05:07:31;;;;;;;0.10;0.10;;;;;;;;;;6681978;26;20000;-76
2024/04/20 05:10:31;;;;;;;0.17;0.17;;;;;;;;;;6688964;26;20100;-76
2024/04/20 05:13:32;;;;;;;0.30;0.20;;;;;;;;;;6724662;26;20071;-76
2024/04/20 05:16:32;;;;;;;0.10;0.10;;;;;;;;;;6712014;26;20084;-76
2024/04/20 05:19:32;;;;;;;0.20;0.20;;;;;;;;;;6715318;26;20044;-76
2024/04/20 05:22:32;;;;;;;0.20;0.10;;;;;;;;;;6681370;26;20456;-76
2024/04/20 05:25:33;;;;;;;0.20;0.20;;;;;;;;;;6682067;26;20003;-76
2024/04/20 05:28:33;;;;;;;0.17;0.17;;;;;;;;;;6714633;26;19991;-76
2024/04/20 05:31:33;;;;;;;0.20;0.20;;;;;;;;;;6725954;26;20498;-76
2024/04/20 05:34:34;;;;;;;0.33;0.20;;;;;;;;;;6703550;26;20467;-76
2024/04/20 05:37:34;;;;;;;0.10;0.10;;;;;;;;;;6690301;26;20446;-76
2024/04/20 05:40:37;;;;;;;0.17;0.17;;;;;;;;;;6723204;26;20323;-76
2024/04/20 05:43:37;;;;;;;0.20;0.20;;;;;;;;;;6719264;26;20329;-75
2024/04/20 05:46:37;;;;;;;0.40;0.40;;;;;;;;;;6681927;26;19996;-76
2024/04/20 05:49:39;;;;;;;0.40;0.30;;;;;;;;;;6697678;26;20525;-76
2024/04/20 05:52:39;;;;;;;0.32;0.32;;;;;;;;;;6704610;26;20018;-75
2024/04/20 05:55:40;;;;;;;0.63;0.57;;;;;;;;;;6706733;26;20332;-76
2024/04/20 05:58:40;;;;;;;0.68;0.43;;;;;;;;;;6722190;26;20333;-76
2024/04/20 06:01:40;;;;;;;0.53;0.33;;;;;;;;;;6713704;26;20003;-76
2024/04/20 06:04:42;;;;;;;0.30;0.30;;;;;;;;;;6715214;26;20448;-76
2024/04/20 06:07:42;;;;;;;;;;;;;;;;;;6717078;26;20010;-76
2024/04/20 06:10:52;;;;;;;0.25;0.20;;;;;;;;;;6716688;26;20350;-76
2024/04/20 06:13:52;;;;;;;0.20;0.20;;;;;;;;;;6690293;26;20333;-75
2024/04/20 06:16:52;;;;;;;0.40;0.30;;;;;;;;;;6707867;26;20004;-76
2024/04/20 06:19:52;;;;;;;0.57;0.50;;;;;;;;;;6696218;26;19999;-77
2024/04/20 06:22:53;;;;;;;0.30;0.30;;;;;;;;;;6717070;26;20448;-75
2024/04/20 06:25:53;;;;;;;1.93;0.40;;;;;;;;;;6690204;26;20480;-77
2024/04/20 06:28:53;;;;;;;0.40;0.40;;;;;;;;;;6702921;26;20031;-77
2024/04/20 06:31:54;;;;;;;0.30;0.30;;;;;;;;;;6700677;26;20230;-77
2024/04/20 06:34:54;;;;;;;1.17;0.30;;;;;;;;;;6704791;26;20012;-77
2024/04/20 06:37:54;;;;;;;1.30;0.40;;;;;;;;;;6712995;26;20028;-77
2024/04/20 06:40:56;;;;;;;1.37;0.77;;;;;;;;;;6709847;26;19996;-77
2024/04/20 06:43:59;;;;;;;0.75;0.40;;;;;;;;;;6681296;26;20003;-76
2024/04/20 06:46:59;;;;;;;0.55;0.50;;;;;;;;;;6710530;26;20004;-76
2024/04/20 06:49:59;;;;;;;0.60;0.60;;;;;;;;;;6699249;26;19996;-77
2024/04/20 06:53:01;;;;;;;0.60;0.50;;;;;;;;;;6700574;26;20000;-76
2024/04/20 06:56:02;;;;;;;0.63;0.52;;;;;;;;;;6718873;26;19995;-76
2024/04/20 06:59:02;;;;;;;1.03;0.60;;;;;;;;;;6703448;26;19992;-76
2024/04/20 07:02:02;;;;;;;2.10;0.53;;;;;;;;;;6700153;26;20337;-76
2024/04/20 07:05:03;;;;;;;1.63;0.60;;;;;;;;;;6695857;26;20073;-76
2024/04/20 07:08:04;;;;;;;1.30;0.70;;;;;;;;;;6696767;26;19992;-76
2024/04/20 07:11:05;;;;;;;1.00;0.60;;;;;;;;;;6714013;26;20361;-76
2024/04/20 07:14:06;;;;;;;0.73;0.60;;;;;;;;;;6689515;26;20032;-76
2024/04/20 07:17:06;;;;;;;0.70;0.30;;;;;;;;;;6696670;26;20470;-76
2024/04/20 07:20:06;;;;;;;0.83;0.37;;;;;;;;;;6691535;26;20000;-76
2024/04/20 07:23:07;;;;;;;0.30;0.30;;;;;;;;;;6679240;26;20401;-76
2024/04/20 07:26:07;;;;;;;0.43;0.30;;;;;;;;;;6709147;26;20083;-76
2024/04/20 07:29:07;;;;;;;0.43;0.27;;;;;;;;;;6696032;26;20003;-76
2024/04/20 07:32:08;;;;;;;0.37;0.23;;;;;;;;;;6719706;26;20352;-76
2024/04/20 07:35:08;;;;;;;0.37;0.30;;;;;;;;;;6704201;26;20004;-76
2024/04/20 07:38:08;;;;;;;1.17;0.40;;;;;;;;;;6716017;26;20028;-77
2024/04/20 07:41:08;;;;;;;0.40;0.37;;;;;;;;;;6704745;26;20027;-77
2024/04/20 07:44:09;;;;;;;0.60;0.20;;;;;;;;;;6702163;26;19996;-78
2024/04/20 07:47:10;;;;;;;0.47;0.30;;;;;;;;;;6723403;26;19999;-76
2024/04/20 07:50:12;;;;;;;0.20;0.20;;;;;;;;;;6721635;26;20003;-77
2024/04/20 07:53:12;;;;;;;0.20;0.20;;;;;;;;;;6675243;26;20000;-77
2024/04/20 07:56:12;;;;;;;0.60;0.30;;;;;;;;;;6684666;26;20007;-77
2024/04/20 07:59:13;;;;;;;0.60;0.20;;;;;;;;;;6690796;26;19992;-76
2024/04/20 08:02:13;;;;;;;0.30;0.20;;;;;;;;;;6727283;26;20039;-76
2024/04/20 08:05:13;;;;;;;0.17;0.17;;;;;;;;;;6694845;26;20066;-76
2024/04/20 08:08:14;;;;;;;0.37;0.20;;;;;;;;;;6714805;26;19998;-77
2024/04/20 08:11:15;;;;;;;0.33;0.20;;;;;;;;;;6773032;26;19999;-77
2024/04/20 08:14:15;;;;;;;0.38;0.15;;;;;;;;;;6758238;26;20331;-77
2024/04/20 08:17:15;;;;;;;0.27;0.20;;;;;;;;;;6708093;26;19996;-77
2024/04/20 08:20:16;;;;;;;0.40;0.30;;;;;;;;;;6707996;26;20000;-78
2024/04/20 08:23:17;;;;;;;0.20;0.20;;;;;;;;;;6700727;26;20213;-78
2024/04/20 08:26:18;;;;;;;0.20;0.10;;;;;;;;;;6700002;26;20014;-77
2024/04/20 08:29:18;;;;;;;0.10;0.10;;;;;;;;;;6726272;26;20413;-77
2024/04/20 08:32:18;;;;;;;0.50;0.20;;;;;;;;;;6712403;26;20318;-77
2024/04/20 08:35:19;;;;;;;0.30;0.27;;;;;;;;;;6715400;26;20464;-77
2024/04/20 08:38:19;;;;;;;0.20;0.10;;;;;;;;;;6727005;26;20076;-77
2024/04/20 08:41:20;;;;;;;0.20;0.20;;;;;;;;;;6727944;26;20041;-77
2024/04/20 08:44:21;;;;;;;0.10;0.10;;;;;;;;;;6714344;26;20001;-77
2024/04/20 08:47:22;;;;;;;0.15;0.10;;;;;;;;;;6705596;26;20007;-77
2024/04/20 08:50:24;;;;;;;0.13;0.13;;;;;;;;;;6699080;26;20000;-76
2024/04/20 08:53:24;;;;;;;0.20;0.20;;;;;;;;;;6709206;26;20000;-77
2024/04/20 08:56:27;;;;;;;0.30;0.20;;;;;;;;;;6696217;26;20517;-82
2024/04/20 08:59:27;;;;;;;0.10;0.10;;;;;;;;;;6691764;26;20015;-82
2024/04/20 09:02:28;;;;;;;0.28;0.20;;;;;;;;;;6677295;26;20006;-82
2024/04/20 09:05:32;;;;;;;0.32;0.20;;;;;;;;;;6687140;26;20019;-81
2024/04/20 09:08:32;;;;;;;0.22;0.10;;;;;;;;;;6693326;26;20329;-84
2024/04/20 09:11:32;;;;;;;0.30;0.23;;;;;;;;;;6695627;26;20007;-85
2024/04/20 09:14:33;;;;;;;0.10;0.10;;;;;;;;;;6695923;26;20636;-83
2024/04/20 09:17:33;;;;;;;0.10;0.10;;;;;;;;;;6718952;26;20004;-82
2024/04/20 09:20:35;;;;;;;0.50;0.30;;;;;;;;;;6714835;26;20443;-78
2024/04/20 09:23:38;;;;;;;0.10;0.10;;;;;;;;;;6721109;26;20417;-77
2024/04/20 09:26:38;;;;;;;0.20;0.20;;;;;;;;;;6719110;26;20007;-77
2024/04/20 09:29:39;;;;;;;0.20;0.20;;;;;;;;;;6721004;26;20370;-78
2024/04/20 09:32:42;;;;;;;0.20;0.20;;;;;;;;;;6723356;26;20470;-78
2024/04/20 09:35:42;;;;;;;0.20;0.20;;;;;;;;;;6704611;26;20416;-78
2024/04/20 09:38:42;;;;;;;0.57;0.20;;;;;;;;;;6718532;26;20044;-79
2024/04/20 09:41:51;;;;;;;1.33;0.93;;;;;;;;;;6704252;26;20011;-77
2024/04/20 09:44:53;;;;;;;1.25;0.73;;;;;;;;;;6687857;26;19992;-75
2024/04/20 09:47:55;;;;;;;0.98;0.50;;;;;;;;;;6713778;26;19999;-75
2024/04/20 09:51:04;;;;;;;0.60;0.30;;;;;;;;;;6705451;26;20352;-75
2024/04/20 09:54:13;;;;;;;0.22;0.22;;;;;;;;;;6683476;26;20000;-76
2024/04/20 09:57:14;;;;;;;0.20;0.10;;;;;;;;;;6700010;26;20236;-75
2024/04/20 10:00:15;;;;;;;0.35;0.30;;;;;;;;;;6719875;26;20019;-75
2024/04/20 10:03:16;;;;;;;0.57;0.35;;;;;;;;;;6692631;26;20019;-77
2024/04/20 10:06:18;;;;;;;0.40;0.40;;;;;;;;;;6680428;26;20142;-76
2024/04/20 10:09:19;;;;;;;0.25;0.20;;;;;;;;;;6680930;26;20078;-75
2024/04/20 10:12:19;;;;;;;0.20;0.10;;;;;;;;;;6685328;26;20502;-75
2024/04/20 10:15:19;;;;;;;0.10;0.10;;;;;;;;;;6680550;26;20334;-74
2024/04/20 10:18:20;;;;;;;0.10;0.10;;;;;;;;;;6705968;26;19996;-76
2024/04/20 10:21:20;;;;;;;0.20;0.20;;;;;;;;;;6691767;26;20077;-75
2024/04/20 10:24:20;;;;;;;0.33;0.30;;;;;;;;;;6692048;26;20291;-75
2024/04/20 10:27:29;;;;;;;0.87;0.20;;;;;;;;;;6683462;26;20252;-83
2024/04/20 10:30:30;;;;;;;0.15;0.15;;;;;;;;;;6681006;26;20099;-82
2024/04/20 10:33:39;;;;;;;0.20;0.20;;;;;;;;;;6688717;26;20023;-78
2024/04/20 10:36:39;;;;;;;0.85;0.20;;;;;;;;;;6675222;26;20329;-76
2024/04/20 10:39:39;;;;;;;0.10;0.10;;;;;;;;;;6674961;26;20036;-77
2024/04/20 10:42:40;;;;;;;0.17;0.17;;;;;;;;;;6656639;26;19996;-79
2024/04/20 10:45:40;;;;;;;0.10;0.10;;;;;;;;;;6694537;26;20433;-78
2024/04/20 10:48:41;;;;;;;0.13;0.13;;;;;;;;;;6683070;26;20211;-78
2024/04/20 10:51:51;;;;;;;0.13;0.13;;;;;;;;;;6700875;26;20452;-75
2024/04/20 10:54:52;;;;;;;0.10;0.10;;;;;;;;;;6697551;26;20463;-78
2024/04/20 10:57:53;;;;;;;0.60;0.50;;;;;;;;;;6705449;26;20027;-79
2024/04/20 11:00:57;;;;;;;0.38;0.30;;;;;;;;;;6701877;26;19996;-75
2024/04/20 11:03:57;;;;;;;0.10;0.10;;;;;;;;;;6676074;26;20000;-78
2024/04/20 11:07:04;;;;;;;0.23;0.20;;;;;;;;;;6692361;26;19999;-77
2024/04/20 11:10:04;;;;;;;0.20;0.08;;;;;;;;;;6689571;26;20011;-75
2024/04/20 11:13:04;;;;;;;0.10;0.10;;;;;;;;;;6711292;26;20011;-77
2024/04/20 11:16:05;;;;;;;0.10;0.10;;;;;;;;;;6684547;26;20028;-79
2024/04/20 11:19:08;;;;;;;0.32;0.10;;;;;;;;;;6706087;26;20031;-76
2024/04/20 11:22:09;;;;;;;0.25;0.10;;;;;;;;;;6690479;26;20027;-80
2024/04/20 11:25:09;;;;;;;0.52;0.10;;;;;;;;;;6698137;26;20019;-81
2024/04/20 11:28:10;;;;;;;0.10;0.10;;;;;;;;;;6702680;26;19996;-82
2024/04/20 11:31:10;;;;;;;0.10;0.10;;;;;;;;;;6668981;26;20015;-84
2024/04/20 11:34:20;;;;;;;0.20;0.20;;;;;;;;;;6713288;26;20008;-83
2024/04/20 11:37:21;;;;;;;0.75;0.10;;;;;;;;;;6720712;26;20003;-85
2024/04/20 11:40:22;;;;;;;0.35;0.05;;;;;;;;;;6693639;26;20336;-80
2024/04/20 11:43:24;;;;;;;0.43;0.10;;;;;;;;;;6730828;26;20046;-82
2024/04/20 11:46:24;;;;;;;1.35;0.20;;;;;;;;;;6705608;26;20340;-84
2024/04/20 11:49:24;;;;;;;0.20;0.20;;;;;;;;;;6736419;26;20020;-80
2024/04/20 11:55:44;;;;;;;0.20;0.20;;;;;;;;;;6722464;26;19999;-77
2024/04/20 11:58:52;;;;;;;0.20;0.20;;;;;;;;;;6698551;26;20042;-77
2024/04/20 12:01:52;;;;;;;0.28;0.20;;;;;;;;;;6692856;26;20709;-79
2024/04/20 12:04:52;;;;;;;0.20;0.20;;;;;;;;;;6703199;26;20003;-81
2024/04/20 12:07:52;;;;;;;0.20;0.20;;;;;;;;;;6706099;26;20000;-83
2024/04/20 12:10:52;;;;;;;1.87;1.40;;;;;;;;;;6691126;26;20027;-82
2024/04/20 12:13:53;;;;;;;1.33;0.90;;;;;;;;;;6701794;26;20455;-87
2024/04/20 12:16:53;;;;;;;1.03;0.93;;;;;;;;;;6719528;26;20010;-81
2024/04/20 12:19:53;;;;;;;0.70;0.60;;;;;;;;;;6725700;26;20356;-81
2024/04/20 12:22:53;;;;;;;0.70;0.50;;;;;;;;;;6694373;26;20412;-84
2024/04/20 12:25:54;;;;;;;0.50;0.47;;;;;;;;;;6710086;26;20011;-80
2024/04/20 12:28:54;;;;;;;0.30;0.30;;;;;;;;;;6694206;26;20007;-82
2024/04/20 12:31:54;;;;;;;0.30;0.30;;;;;;;;;;6715415;26;20015;-79
2024/04/20 12:34:54;;;;;;;0.40;0.30;;;;;;;;;;6683497;26;20014;-81
2024/04/20 12:37:55;;;;;;;0.30;0.30;;;;;;;;;;6720168;26;20006;-81
2024/04/20 12:40:55;;;;;;;0.30;0.30;;;;;;;;;;6685863;26;19996;-86
2024/04/20 12:43:55;;;;;;;0.40;0.40;;;;;;;;;;6708724;26;19996;-83
2024/04/20 12:46:55;;;;;;;0.97;0.60;;;;;;;;;;6703211;26;20505;-83
2024/04/20 12:49:56;;;;;;;0.87;0.73;;;;;;;;;;6705555;26;20436;-82
2024/04/20 12:52:56;;;;;;;1.80;1.40;;;;;;;;;;6715262;26;20027;-81
2024/04/20 12:55:56;;;;;;;1.87;1.23;;;;;;;;;;6706367;26;20368;-79
2024/04/20 12:58:56;;;;;;;1.60;1.20;;;;;;;;;;6699610;26;19996;-80
2024/04/20 13:01:57;;;;;;;0.57;0.57;;;;;;;;;;6685250;26;20391;-80
2024/04/20 13:04:57;;;;;;;0.77;0.77;;;;;;;;;;6710176;26;20957;-81
2024/04/20 13:07:57;;;;;;;0.80;0.67;;;;;;;;;;6724741;26;20443;-81
2024/04/20 13:10:57;;;;;;;0.50;0.40;;;;;;;;;;6701293;26;20067;-80
2024/04/20 13:13:58;;;;;;;0.30;0.30;;;;;;;;;;6696095;26;19996;-79
2024/04/20 13:16:58;;;;;;;0.97;0.67;;;;;;;;;;6682305;26;19992;-81
2024/04/20 13:19:59;;;;;;;0.90;0.70;;;;;;;;;;6694757;26;20456;-80
2024/04/20 13:22:59;;;;;;;0.70;0.70;;;;;;;;;;6690014;26;20469;-80
2024/04/20 13:26:00;;;;;;;0.40;0.40;;;;;;;;;;6668255;26;19999;-79
2024/04/20 13:29:00;;;;;;;0.40;0.40;;;;;;;;;;6690741;26;19996;-79
2024/04/20 13:32:00;;;;;;;0.50;0.40;;;;;;;;;;6699633;26;20474;-78
2024/04/20 13:35:00;;;;;;;0.30;0.30;;;;;;;;;;6699803;26;20780;-79
2024/04/20 13:38:01;;;;;;;0.20;0.20;;;;;;;;;;6678896;26;20448;-79
2024/04/20 13:41:02;;;;;;;0.20;0.20;;;;;;;;;;6659362;26;20000;-79
2024/04/20 13:44:03;;;;;;;0.10;0.10;;;;;;;;;;6704835;26;20003;-79
2024/04/20 13:47:03;;;;;;;0.20;0.20;;;;;;;;;;6704333;26;20011;-78
2024/04/20 13:50:04;;;;;;;0.60;0.17;;;;;;;;;;6698468;26;20109;-79
2024/04/20 13:53:04;;;;;;;0.10;0.10;;;;;;;;;;6713244;26;20221;-78
2024/04/20 13:56:05;;;;;;;0.10;0.10;;;;;;;;;;6698073;26;20011;-78
2024/04/20 13:59:05;;;;;;;0.10;0.10;;;;;;;;;;6723085;26;20214;-78
2024/04/20 14:02:05;;;;;;;0.30;0.20;;;;;;;;;;6694434;26;19999;-80
2024/04/20 14:05:06;;;;;;;0.40;0.20;;;;;;;;;;6695526;26;19997;-80
2024/04/20 14:08:06;;;;;;;0.10;0.10;;;;;;;;;;6674941;26;19995;-80
2024/04/20 14:11:06;;;;;;;2.70;1.73;;;;;;;;;;6685835;26;20237;-82
2024/04/20 14:14:06;;;;;;;1.30;1.10;;;;;;;;;;6724962;26;19988;-81
2024/04/20 14:17:06;;;;;;;0.53;0.53;;;;;;;;;;6725000;26;20443;-81
2024/04/20 14:20:12;;;;;;;0.43;0.40;;;;;;;;;;6724951;26;20006;-84
2024/04/20 14:23:12;;;;;;;0.50;0.30;;;;;;;;;;6714433;26;20423;-85
2024/04/20 14:26:13;;;;;;;0.23;0.20;;;;;;;;;;6721979;26;19987;-85
2024/04/20 14:29:13;;;;;;;0.20;0.20;;;;;;;;;;6673995;26;20472;-85
2024/04/20 14:32:13;;;;;;;0.20;0.20;;;;;;;;;;6722824;26;19996;-84
2024/04/20 14:35:14;;;;;;;0.10;0.10;;;;;;;;;;6684665;26;20000;-82
2024/04/20 14:38:15;;;;;;;1.27;0.20;;;;;;;;;;6680462;26;19996;-82
2024/04/20 14:41:15;;;;;;;0.20;0.20;;;;;;;;;;6690553;26;20019;-81
2024/04/20 14:44:15;;;;;;;0.33;0.20;;;;;;;;;;6749624;26;20522;-83
2024/04/20 14:47:16;;;;;;;0.20;0.20;;;;;;;;;;6667252;26;20004;-84
2024/04/20 14:50:16;;;;;;;0.33;0.20;;;;;;;;;;6702543;26;20288;-85
2024/04/20 14:53:17;;;;;;;0.43;0.30;;;;;;;;;;6708959;26;20457;-86
2024/04/20 14:56:17;;;;;;;0.20;0.20;;;;;;;;;;6717877;26;20012;-83
2024/04/20 14:59:18;;;;;;;0.47;0.30;;;;;;;;;;6694743;26;20365;-86
2024/04/20 15:02:20;;;;;;;0.30;0.30;;;;;;;;;;6657441;26;20016;-81
2024/04/20 15:05:20;;;;;;;0.52;0.25;;;;;;;;;;6719447;26;19995;-86
2024/04/20 15:08:21;;;;;;;0.70;0.40;;;;;;;;;;6686788;26;19996;-85
2024/04/20 15:11:22;;;;;;;0.80;0.50;;;;;;;;;;6706172;26;20464;-87
2024/04/20 15:14:22;;;;;;;0.30;0.30;;;;;;;;;;6718833;26;20027;-84
2024/04/20 15:17:23;;;;;;;0.20;0.20;;;;;;;;;;6717800;26;20427;-82
2024/04/20 15:20:23;;;;;;;0.30;0.30;;;;;;;;;;6680206;26;20008;-83
2024/04/20 15:23:23;;;;;;;0.60;0.40;;;;;;;;;;6710075;26;20398;-82
2024/04/20 15:26:24;;;;;;;1.47;1.07;;;;;;;;;;6714967;26;20317;-83
2024/04/20 15:29:24;;;;;;;0.87;0.60;;;;;;;;;;6711505;26;20381;-84
2024/04/20 15:32:24;;;;;;;0.60;0.47;;;;;;;;;;6690764;26;20039;-79
2024/04/20 15:35:24;;;;;;;0.20;0.20;;;;;;;;;;6719050;26;19996;-79
2024/04/20 15:38:25;;;;;;;0.30;0.30;;;;;;;;;;6725678;26;20036;-80
2024/04/20 15:41:25;;;;;;;0.30;0.30;;;;;;;;;;6692171;26;19999;-78
2024/04/20 15:44:25;;;;;;;0.30;0.20;;;;;;;;;;6723309;26;19996;-79
2024/04/20 15:47:25;;;;;;;0.73;0.37;;;;;;;;;;6709450;26;19996;-80
2024/04/20 15:50:26;;;;;;;0.30;0.30;;;;;;;;;;6722437;26;20333;-80
2024/04/20 15:53:27;;;;;;;0.70;0.30;;;;;;;;;;6720373;26;20436;-79
2024/04/20 15:56:27;;;;;;;0.13;0.10;;;;;;;;;;6672566;26;19992;-79
2024/04/20 15:59:27;;;;;;;0.30;0.30;;;;;;;;;;6698299;26;20024;-77
2024/04/20 16:02:27;;;;;;;0.43;0.30;;;;;;;;;;6691429;26;19999;-80
2024/04/20 16:05:28;;;;;;;0.10;0.10;;;;;;;;;;6694633;26;20040;-77
2024/04/20 16:08:28;;;;;;;0.20;0.20;;;;;;;;;;6723255;26;20448;-78
2024/04/20 16:11:28;;;;;;;0.10;0.10;;;;;;;;;;6688134;26;20069;-78
2024/04/20 16:14:29;;;;;;;0.10;0.10;;;;;;;;;;6712557;26;20418;-79
2024/04/20 16:17:29;;;;;;;0.17;0.17;;;;;;;;;;6697115;26;20456;-79
2024/04/20 16:20:30;;;;;;;0.10;0.10;;;;;;;;;;6720453;26;20507;-78
2024/04/20 16:23:31;;;;;;;0.30;0.20;;;;;;;;;;6683374;26;20457;-78
2024/04/20 16:26:33;;;;;;;;;;;;;;;;;;6706099;26;20076;-79
2024/04/20 16:29:33;;;;;;;0.22;0.22;;;;;;;;;;6754202;26;19925;-72
2024/04/20 16:32:34;;;;;;;0.30;0.30;;;;;;;;;;6725303;26;20000;-81
2024/04/20 16:35:34;;;;;;;0.23;0.23;;;;;;;;;;6746323;26;20370;-85
2024/04/20 16:38:35;;;;;;;0.30;0.20;;;;;;;;;;6739981;26;20448;-85
2024/04/20 16:41:35;;;;;;;0.77;0.28;;;;;;;;;;6659637;26;20330;-84
2024/04/20 16:44:35;;;;;;;0.20;0.20;;;;;;;;;;6687112;26;20475;-82
2024/04/20 16:47:36;;;;;;;0.30;0.30;;;;;;;;;;6716155;26;20032;-79
2024/04/20 16:50:36;;;;;;;0.20;0.20;;;;;;;;;;6725838;26;20076;-79
2024/04/20 16:53:37;;;;;;;1.83;1.17;;;;;;;;;;6727364;26;20071;-84
2024/04/20 16:56:37;;;;;;;2.33;1.55;;;;;;;;;;6689343;26;19992;-81
2024/04/20 16:59:38;;;;;;;1.10;0.80;;;;;;;;;;6724955;26;19999;-80
2024/04/20 17:02:39;;;;;;;0.65;0.65;;;;;;;;;;6690357;26;20464;-81
2024/04/20 17:05:39;;;;;;;0.93;0.43;;;;;;;;;;6723785;26;19991;-80
2024/04/20 17:08:41;;;;;;;0.50;0.50;;;;;;;;;;6727217;26;20019;-81
2024/04/20 17:11:42;;;;;;;1.00;0.50;;;;;;;;;;6710292;26;20030;-80
2024/04/20 17:14:42;;;;;;;0.60;0.50;;;;;;;;;;6688926;26;19999;-80
2024/04/20 17:17:42;;;;;;;0.30;0.30;;;;;;;;;;6725605;26;20436;-80
2024/04/20 17:20:42;;;;;;;0.30;0.20;;;;;;;;;;6701798;26;20427;-80
2024/04/20 17:23:44;;;;;;;0.30;0.30;;;;;;;;;;6691897;26;20434;-80
2024/04/20 17:26:44;;;;;;;;;;;;;;;;;;6675162;26;20008;-80
2024/04/20 17:29:44;;;;;;;0.65;0.30;;;;;;;;;;6681489;26;20376;-81
2024/04/20 17:32:44;;;;;;;0.40;0.30;;;;;;;;;;6717896;26;20520;-80
2024/04/20 17:35:45;;;;;;;0.40;0.30;;;;;;;;;;6675603;26;20445;-80
2024/04/20 17:38:45;;;;;;;0.20;0.20;;;;;;;;;;6702842;26;20368;-80
2024/04/20 17:41:45;;;;;;;0.30;0.30;;;;;;;;;;6673546;26;20464;-80
2024/04/20 17:44:46;;;;;;;0.30;0.30;;;;;;;;;;6719212;26;20019;-80
2024/04/20 17:47:46;;;;;;;0.43;0.43;;;;;;;;;;6703669;26;20024;-80
2024/04/20 17:50:53;;;;;;;0.30;0.30;;;;;;;;;;6682393;26;19996;-80
2024/04/20 17:53:54;;;;;;;0.28;0.28;;;;;;;;;;6720724;26;20000;-80
2024/04/20 17:56:55;;;;;;;0.30;0.30;;;;;;;;;;6696766;26;20010;-80
2024/04/20 17:59:55;;;;;;;0.40;0.40;;;;;;;;;;6716693;26;19993;-80
2024/04/20 18:02:55;;;;;;;0.40;0.40;;;;;;;;;;6712547;26;20023;-80
2024/04/20 18:06:05;;;;;;;0.33;0.33;;;;;;;;;;6697857;26;20114;-80
2024/04/20 18:09:05;;;;;;;0.30;0.30;;;;;;;;;;6719130;26;20565;-79